Time;durP1;ratioP1;P1;durP2;ratioP2;P2;SDS_P1;SDS_P2;PMS_P1;PMS_P2;Temp;Humidity;BMP_temperature;BMP_pressure;BME280_temperature;BME280_humidity;BME280_pressure;Samples;Min_cycle;Max_cycle;Signal;HPM_P1;HPM_P2
2023/11/22 00:00:13;;;;;;;113.07;15.45;;;;;;;;;;5026982;28;20068;-42
2023/11/22 00:02:41;;;;;;;108.50;14.77;;;;;;;;;;5036768;28;20029;-40
2023/11/22 00:05:09;;;;;;;88.65;11.85;;;;;;;;;;5032157;28;20116;-44
2023/11/22 00:07:36;;;;;;;75.80;11.13;;;;;;;;;;5030296;28;20040;-37
2023/11/22 00:10:04;;;;;;;64.90;10.60;;;;;;;;;;5022015;28;20137;-38
2023/11/22 00:12:37;;;;;;;85.07;11.95;;;;;;;;;;5037479;28;20550;-39
2023/11/22 00:15:07;;;;;;;74.65;9.80;;;;;;;;;;5027163;28;20065;-42
2023/11/22 00:17:35;;;;;;;70.50;10.20;;;;;;;;;;5029245;28;20812;-40
2023/11/22 00:20:05;;;;;;;77.38;11.35;;;;;;;;;;5042739;28;20044;-41
2023/11/22 00:22:35;;;;;;;65.38;10.95;;;;;;;;;;5020837;28;20136;-40
2023/11/22 00:25:03;;;;;;;71.22;11.13;;;;;;;;;;5036847;28;20034;-39
2023/11/22 00:27:33;;;;;;;63.80;11.60;;;;;;;;;;5039172;28;20109;-40
2023/11/22 00:30:00;;;;;;;71.18;10.95;;;;;;;;;;5045212;28;20070;-44
2023/11/22 00:32:27;;;;;;;70.60;11.63;;;;;;;;;;5028657;28;20037;-44
2023/11/22 00:34:54;;;;;;;81.55;12.18;;;;;;;;;;5025706;28;20029;-44
2023/11/22 00:37:21;;;;;;;69.60;10.68;;;;;;;;;;5039871;28;20029;-42
2023/11/22 00:39:48;;;;;;;96.70;13.50;;;;;;;;;;5029377;28;20394;-43
2023/11/22 00:42:20;;;;;;;104.90;13.57;;;;;;;;;;5033886;28;20068;-40
2023/11/22 00:44:47;;;;;;;77.25;13.80;;;;;;;;;;5036848;28;20190;-41
2023/11/22 00:47:16;;;;;;;82.90;13.93;;;;;;;;;;5034876;28;20108;-39
2023/11/22 00:49:43;;;;;;;89.10;12.98;;;;;;;;;;5026732;28;20116;-42
2023/11/22 00:52:10;;;;;;;105.75;15.60;;;;;;;;;;5030181;28;20025;-36
2023/11/22 00:54:37;;;;;;;82.22;14.90;;;;;;;;;;5031495;28;20080;-36
2023/11/22 00:57:04;;;;;;;76.95;13.25;;;;;;;;;;5032086;28;20083;-36
2023/11/22 00:59:32;;;;;;;89.13;15.38;;;;;;;;;;5028144;28;20583;-40
2023/11/22 01:01:59;;;;;;;87.82;15.60;;;;;;;;;;5032303;28;20103;-39
2023/11/22 01:04:26;;;;;;;124.85;17.88;;;;;;;;;;5030799;28;20043;-39
2023/11/22 01:06:53;;;;;;;120.80;18.27;;;;;;;;;;5036081;28;20017;-36
2023/11/22 01:09:21;;;;;;;117.05;19.30;;;;;;;;;;5041844;28;20043;-36
2023/11/22 01:11:48;;;;;;;132.75;23.95;;;;;;;;;;5043136;28;20060;-39
2023/11/22 01:14:15;;;;;;;124.18;21.00;;;;;;;;;;5031269;28;20108;-37
2023/11/22 01:16:43;;;;;;;116.95;21.88;;;;;;;;;;5018534;28;20025;-37
2023/11/22 01:19:11;;;;;;;122.05;23.33;;;;;;;;;;5020006;28;20033;-38
2023/11/22 01:21:38;;;;;;;132.73;24.30;;;;;;;;;;5031758;28;20373;-36
2023/11/22 01:24:06;;;;;;;143.98;25.88;;;;;;;;;;5028053;28;20433;-37
2023/11/22 01:26:33;;;;;;;118.38;26.25;;;;;;;;;;5031832;28;20503;-36
2023/11/22 01:29:00;;;;;;;136.07;27.98;;;;;;;;;;5033184;28;20410;-39
2023/11/22 01:31:27;;;;;;;132.80;29.92;;;;;;;;;;5031389;28;20391;-36
2023/11/22 01:33:54;;;;;;;120.70;28.45;;;;;;;;;;5022294;28;20048;-36
2023/11/22 01:36:21;;;;;;;127.03;28.60;;;;;;;;;;4998557;28;20034;-36
2023/11/22 01:38:48;;;;;;;130.25;29.63;;;;;;;;;;5037253;28;20683;-39
2023/11/22 01:41:16;;;;;;;138.25;29.42;;;;;;;;;;5037624;28;20037;-36
2023/11/22 01:43:42;;;;;;;131.88;30.27;;;;;;;;;;5036671;28;20049;-40
2023/11/22 01:46:11;;;;;;;154.02;31.10;;;;;;;;;;5046860;28;20029;-41
2023/11/22 01:48:38;;;;;;;145.15;29.75;;;;;;;;;;5024271;28;20030;-40
2023/11/22 01:51:08;;;;;;;158.98;31.13;;;;;;;;;;5025889;28;20048;-38
2023/11/22 01:53:35;;;;;;;134.40;28.73;;;;;;;;;;5028517;28;20033;-42
2023/11/22 01:56:02;;;;;;;134.90;28.83;;;;;;;;;;5034046;28;20103;-40
2023/11/22 01:58:29;;;;;;;149.18;29.92;;;;;;;;;;5035731;28;20030;-42
2023/11/22 02:00:58;;;;;;;145.45;29.00;;;;;;;;;;5042991;28;20498;-42
2023/11/22 02:03:25;;;;;;;140.50;28.02;;;;;;;;;;5042241;28;20053;-38
2023/11/22 02:05:54;;;;;;;133.88;27.85;;;;;;;;;;5018931;28;20034;-38
2023/11/22 02:08:21;;;;;;;137.50;29.13;;;;;;;;;;5028090;28;20518;-38
2023/11/22 02:10:58;;;;;;;130.77;28.45;;;;;;;;;;5023550;28;20033;-39
2023/11/22 02:13:26;;;;;;;139.35;29.10;;;;;;;;;;5032160;28;20029;-39
2023/11/22 02:15:55;;;;;;;135.30;28.23;;;;;;;;;;5038874;28;20040;-38
2023/11/22 02:18:31;;;;;;;125.88;26.95;;;;;;;;;;5040978;28;20135;-41
2023/11/22 02:20:59;;;;;;;125.32;27.00;;;;;;;;;;5041730;28;20056;-41
2023/11/22 02:23:26;;;;;;;107.30;25.55;;;;;;;;;;5027581;28;20033;-39
2023/11/22 02:25:53;;;;;;;115.97;26.42;;;;;;;;;;5044041;28;20037;-38
2023/11/22 02:28:20;;;;;;;115.95;25.20;;;;;;;;;;5036334;28;20021;-39
2023/11/22 02:30:47;;;;;;;103.28;24.77;;;;;;;;;;5049962;28;20494;-38
2023/11/22 02:33:14;;;;;;;117.75;26.35;;;;;;;;;;5032265;28;20425;-38
2023/11/22 02:35:42;;;;;;;109.15;24.75;;;;;;;;;;5030792;28;20032;-39
2023/11/22 02:38:09;;;;;;;116.97;26.33;;;;;;;;;;5031314;28;20558;-42
2023/11/22 02:40:35;;;;;;;105.45;24.92;;;;;;;;;;5038654;28;20104;-39
2023/11/22 02:43:07;;;;;;;106.65;24.45;;;;;;;;;;5033279;28;20033;-41
2023/11/22 02:45:34;;;;;;;91.87;24.67;;;;;;;;;;5033670;28;20041;-41
2023/11/22 02:48:04;;;;;;;110.97;24.30;;;;;;;;;;5032948;28;20037;-43
2023/11/22 02:50:34;;;;;;;108.88;23.50;;;;;;;;;;5030467;28;20037;-41
2023/11/22 02:53:02;;;;;;;107.82;25.05;;;;;;;;;;5024485;28;20495;-41
2023/11/22 02:55:28;;;;;;;106.50;23.60;;;;;;;;;;5016146;28;20046;-43
2023/11/22 02:57:56;;;;;;;104.07;21.83;;;;;;;;;;5024378;28;20043;-40
2023/11/22 03:00:25;;;;;;;99.65;22.83;;;;;;;;;;5036303;28;20058;-41
2023/11/22 03:02:55;;;;;;;98.70;23.52;;;;;;;;;;5033315;28;20127;-40
2023/11/22 03:05:24;;;;;;;93.97;22.00;;;;;;;;;;5034128;28;20096;-40
2023/11/22 03:07:51;;;;;;;99.60;22.77;;;;;;;;;;5034379;28;20029;-40
2023/11/22 03:10:18;;;;;;;93.05;22.80;;;;;;;;;;5034300;28;20026;-41
2023/11/22 03:12:45;;;;;;;86.97;20.00;;;;;;;;;;5034307;28;20033;-40
2023/11/22 03:15:12;;;;;;;94.55;22.10;;;;;;;;;;5034065;28;20030;-40
2023/11/22 03:17:39;;;;;;;92.72;21.00;;;;;;;;;;5016276;28;20071;-41
2023/11/22 03:20:09;;;;;;;77.78;19.45;;;;;;;;;;5034094;28;20044;-40
2023/11/22 03:22:37;;;;;;;80.05;19.48;;;;;;;;;;5033932;28;20033;-40
2023/11/22 03:25:05;;;;;;;77.07;18.77;;;;;;;;;;5033894;28;20026;-40
2023/11/22 03:27:31;;;;;;;79.40;18.83;;;;;;;;;;5034096;28;20028;-41
2023/11/22 03:29:58;;;;;;;73.35;17.98;;;;;;;;;;5034005;28;20029;-40
2023/11/22 03:32:25;;;;;;;71.47;16.98;;;;;;;;;;5033858;28;20025;-40
2023/11/22 03:34:52;;;;;;;78.32;16.70;;;;;;;;;;5033775;28;20029;-43
2023/11/22 03:37:19;;;;;;;77.32;17.77;;;;;;;;;;5033830;28;20434;-40
2023/11/22 03:39:48;;;;;;;65.05;15.48;;;;;;;;;;5033776;28;20034;-40
2023/11/22 03:42:18;;;;;;;59.28;15.55;;;;;;;;;;5033666;28;20483;-40
2023/11/22 03:44:45;;;;;;;63.63;14.93;;;;;;;;;;5015600;28;20083;-42
2023/11/22 03:47:13;;;;;;;66.45;16.38;;;;;;;;;;5033699;28;20510;-41
2023/11/22 03:49:40;;;;;;;65.85;16.20;;;;;;;;;;5033526;28;20033;-40
2023/11/22 03:52:08;;;;;;;67.40;15.60;;;;;;;;;;5033588;28;20030;-41
2023/11/22 03:54:35;;;;;;;71.07;16.92;;;;;;;;;;5027703;28;20068;-40
2023/11/22 03:57:05;;;;;;;58.40;15.90;;;;;;;;;;5033359;28;20112;-41
2023/11/22 03:59:32;;;;;;;56.67;15.02;;;;;;;;;;5033273;28;20053;-40
2023/11/22 04:01:59;;;;;;;57.50;15.57;;;;;;;;;;5033301;28;20021;-42
2023/11/22 04:04:26;;;;;;;49.92;15.38;;;;;;;;;;5033180;28;20505;-40
2023/11/22 04:06:53;;;;;;;67.25;16.45;;;;;;;;;;5033386;28;20758;-40
2023/11/22 04:09:20;;;;;;;56.35;16.08;;;;;;;;;;5033278;28;20021;-40
2023/11/22 04:11:47;;;;;;;52.13;15.63;;;;;;;;;;5033050;28;20026;-41
2023/11/22 04:14:14;;;;;;;52.80;15.18;;;;;;;;;;5014458;28;20438;-40
2023/11/22 04:16:41;;;;;;;54.30;14.90;;;;;;;;;;5033005;28;20083;-41
2023/11/22 04:19:08;;;;;;;58.75;14.95;;;;;;;;;;5033015;28;20048;-41
2023/11/22 04:21:35;;;;;;;56.33;14.93;;;;;;;;;;5033078;28;20029;-40
2023/11/22 04:24:02;;;;;;;60.15;15.55;;;;;;;;;;5032831;28;20029;-45
2023/11/22 04:26:29;;;;;;;48.55;13.50;;;;;;;;;;5032880;28;20518;-41
2023/11/22 04:28:56;;;;;;;50.42;13.75;;;;;;;;;;5032867;28;20018;-40
2023/11/22 04:31:23;;;;;;;48.15;13.57;;;;;;;;;;5032768;28;20029;-40
2023/11/22 04:33:50;;;;;;;40.13;13.02;;;;;;;;;;5032833;28;20064;-41
2023/11/22 04:36:17;;;;;;;46.05;13.32;;;;;;;;;;5032639;28;20021;-41
2023/11/22 04:38:44;;;;;;;41.83;12.15;;;;;;;;;;5032714;28;20126;-40
2023/11/22 04:41:11;;;;;;;49.95;13.98;;;;;;;;;;5032579;28;20048;-42
2023/11/22 04:43:38;;;;;;;47.20;13.25;;;;;;;;;;5032484;28;20510;-40
2023/11/22 04:46:05;;;;;;;48.05;13.63;;;;;;;;;;5032293;28;20021;-41
2023/11/22 04:48:32;;;;;;;43.63;13.15;;;;;;;;;;5032494;28;20060;-40
2023/11/22 04:50:59;;;;;;;39.70;12.50;;;;;;;;;;5032459;28;20017;-41
2023/11/22 04:53:26;;;;;;;45.00;13.23;;;;;;;;;;5032426;28;20025;-40
2023/11/22 04:55:54;;;;;;;47.70;11.95;;;;;;;;;;5032130;28;20029;-40
2023/11/22 04:58:21;;;;;;;37.72;11.73;;;;;;;;;;5014382;28;20033;-40
2023/11/22 05:00:48;;;;;;;37.47;11.98;;;;;;;;;;5032234;28;20097;-38
2023/11/22 05:03:15;;;;;;;38.65;11.95;;;;;;;;;;5032136;28;20502;-38
2023/11/22 05:05:42;;;;;;;39.60;12.15;;;;;;;;;;5032098;28;20032;-38
2023/11/22 05:08:09;;;;;;;42.15;12.38;;;;;;;;;;5032093;28;20045;-38
2023/11/22 05:10:36;;;;;;;38.58;11.82;;;;;;;;;;5032064;28;20028;-38
2023/11/22 05:13:04;;;;;;;39.08;12.50;;;;;;;;;;5032119;28;20064;-38
2023/11/22 05:15:30;;;;;;;36.38;12.50;;;;;;;;;;5031869;28;20480;-38
2023/11/22 05:17:57;;;;;;;35.65;12.35;;;;;;;;;;5031972;28;20033;-39
2023/11/22 05:20:24;;;;;;;29.15;11.57;;;;;;;;;;5032022;28;20092;-38
2023/11/22 05:22:52;;;;;;;41.00;12.15;;;;;;;;;;5031814;28;20117;-39
2023/11/22 05:25:19;;;;;;;36.08;13.20;;;;;;;;;;5031747;28;20037;-38
2023/11/22 05:27:46;;;;;;;30.42;10.77;;;;;;;;;;5031766;28;20017;-38
2023/11/22 05:30:15;;;;;;;34.17;10.88;;;;;;;;;;5031799;28;20034;-40
2023/11/22 05:32:42;;;;;;;28.23;11.15;;;;;;;;;;5031726;28;20492;-40
2023/11/22 05:35:09;;;;;;;38.85;11.80;;;;;;;;;;5031618;28;20105;-40
2023/11/22 05:37:37;;;;;;;38.88;11.38;;;;;;;;;;5031770;28;20026;-41
2023/11/22 05:40:05;;;;;;;27.63;10.45;;;;;;;;;;5031722;28;20057;-41
2023/11/22 05:42:32;;;;;;;27.33;9.75;;;;;;;;;;5031577;28;20018;-40
2023/11/22 05:44:59;;;;;;;27.88;9.25;;;;;;;;;;5031407;28;20399;-41
2023/11/22 05:47:26;;;;;;;28.63;9.60;;;;;;;;;;5031469;28;20495;-38
2023/11/22 05:49:53;;;;;;;25.33;8.77;;;;;;;;;;5031603;28;20021;-38
2023/11/22 05:52:20;;;;;;;28.90;8.02;;;;;;;;;;5031510;28;20033;-38
2023/11/22 05:54:47;;;;;;;25.30;8.93;;;;;;;;;;5031193;28;20033;-38
2023/11/22 05:57:15;;;;;;;23.63;7.82;;;;;;;;;;5031585;28;20052;-38
2023/11/22 05:59:42;;;;;;;21.80;8.13;;;;;;;;;;5031248;28;20104;-38
2023/11/22 06:02:09;;;;;;;22.73;7.97;;;;;;;;;;5030166;28;20057;-40
2023/11/22 06:04:36;;;;;;;24.75;8.60;;;;;;;;;;5031025;28;20037;-38
2023/11/22 06:07:02;;;;;;;26.05;8.02;;;;;;;;;;5030134;28;20033;-40
2023/11/22 06:09:29;;;;;;;30.35;8.38;;;;;;;;;;5031329;28;20576;-41
2023/11/22 06:11:56;;;;;;;24.30;8.93;;;;;;;;;;5031437;28;20092;-40
2023/11/22 06:14:23;;;;;;;24.13;8.55;;;;;;;;;;5031274;28;20034;-40
2023/11/22 06:16:50;;;;;;;22.60;8.13;;;;;;;;;;5031389;28;20021;-40
2023/11/22 06:19:17;;;;;;;21.77;7.75;;;;;;;;;;5031299;28;20392;-40
2023/11/22 06:21:45;;;;;;;23.35;8.02;;;;;;;;;;5031043;28;20029;-38
2023/11/22 06:24:15;;;;;;;22.88;8.02;;;;;;;;;;5031245;28;20041;-40
2023/11/22 06:26:50;;;;;;;28.88;8.55;;;;;;;;;;5031101;28;20152;-40
2023/11/22 06:29:17;;;;;;;21.55;7.80;;;;;;;;;;5031169;28;20143;-42
2023/11/22 06:31:44;;;;;;;21.95;8.02;;;;;;;;;;5031186;28;20029;-40
2023/11/22 06:34:11;;;;;;;23.63;8.02;;;;;;;;;;5031027;28;20040;-38
2023/11/22 06:36:38;;;;;;;27.70;8.13;;;;;;;;;;5032131;28;20079;-37
2023/11/22 06:39:05;;;;;;;20.73;7.10;;;;;;;;;;5034878;28;20028;-38
2023/11/22 06:41:32;;;;;;;21.25;7.80;;;;;;;;;;5034675;28;20026;-38
2023/11/22 06:43:59;;;;;;;18.58;7.70;;;;;;;;;;5034764;28;20037;-38
2023/11/22 06:46:26;;;;;;;19.40;7.80;;;;;;;;;;5034866;28;20032;-39
2023/11/22 06:48:53;;;;;;;22.10;7.15;;;;;;;;;;5034700;28;20021;-38
2023/11/22 06:51:21;;;;;;;20.10;7.03;;;;;;;;;;5030532;28;20084;-41
2023/11/22 06:53:48;;;;;;;21.10;6.97;;;;;;;;;;5014771;28;20073;-41
2023/11/22 06:56:15;;;;;;;23.70;6.35;;;;;;;;;;5015005;28;20034;-40
2023/11/22 06:58:42;;;;;;;15.95;5.68;;;;;;;;;;5014664;28;20075;-40
2023/11/22 07:01:10;;;;;;;16.02;6.28;;;;;;;;;;5014843;28;20034;-40
2023/11/22 07:03:40;;;;;;;16.90;6.75;;;;;;;;;;5014361;28;20034;-40
2023/11/22 07:06:09;;;;;;;18.50;6.35;;;;;;;;;;5014632;28;20026;-40
2023/11/22 07:08:36;;;;;;;17.90;5.72;;;;;;;;;;5014853;28;20049;-40
2023/11/22 07:11:03;;;;;;;19.67;6.30;;;;;;;;;;5014670;28;20018;-40
2023/11/22 07:13:31;;;;;;;13.57;5.13;;;;;;;;;;5014600;28;20034;-41
2023/11/22 07:16:00;;;;;;;14.60;5.18;;;;;;;;;;5014109;28;20487;-38
2023/11/22 07:18:27;;;;;;;17.08;5.00;;;;;;;;;;5014279;28;20113;-38
2023/11/22 07:20:55;;;;;;;15.73;5.60;;;;;;;;;;5014253;28;20026;-39
2023/11/22 07:23:27;;;;;;;14.63;5.43;;;;;;;;;;5014162;28;20500;-38
2023/11/22 07:25:54;;;;;;;14.75;5.32;;;;;;;;;;5014217;28;20065;-38
2023/11/22 07:28:21;;;;;;;13.82;4.57;;;;;;;;;;5014205;28;20026;-38
2023/11/22 07:30:48;;;;;;;16.13;4.70;;;;;;;;;;5014248;28;20021;-38
2023/11/22 07:33:15;;;;;;;16.10;5.28;;;;;;;;;;5014231;28;20507;-37
2023/11/22 07:35:42;;;;;;;16.65;4.88;;;;;;;;;;5014098;28;20105;-37
2023/11/22 07:38:11;;;;;;;15.60;5.63;;;;;;;;;;5014033;28;20539;-42
2023/11/22 07:40:38;;;;;;;13.07;4.00;;;;;;;;;;5014187;28;20537;-38
2023/11/22 07:43:05;;;;;;;11.40;4.57;;;;;;;;;;5013910;28;20116;-37
2023/11/22 07:45:32;;;;;;;14.50;5.03;;;;;;;;;;5013711;28;20030;-38
2023/11/22 07:48:00;;;;;;;13.85;4.50;;;;;;;;;;5012816;28;20096;-38
2023/11/22 07:50:27;;;;;;;15.32;5.13;;;;;;;;;;5013644;28;20484;-37
2023/11/22 07:52:54;;;;;;;11.68;3.88;;;;;;;;;;5013850;28;20033;-38
2023/11/22 07:55:22;;;;;;;13.35;4.47;;;;;;;;;;5013602;28;20644;-39
2023/11/22 07:57:53;;;;;;;14.43;3.95;;;;;;;;;;5013562;28;20026;-39
2023/11/22 08:00:20;;;;;;;11.45;3.97;;;;;;;;;;5013366;28;20581;-38
2023/11/22 08:02:47;;;;;;;11.68;4.00;;;;;;;;;;5013501;28;20480;-39
2023/11/22 08:05:15;;;;;;;9.93;4.07;;;;;;;;;;5013490;28;20018;-38
2023/11/22 08:07:44;;;;;;;8.93;3.60;;;;;;;;;;5013305;28;20467;-38
2023/11/22 08:10:20;;;;;;;11.93;4.20;;;;;;;;;;5013408;28;20762;-38
2023/11/22 08:12:49;;;;;;;11.10;4.28;;;;;;;;;;5013330;28;20032;-38
2023/11/22 08:15:19;;;;;;;9.48;3.67;;;;;;;;;;5013163;28;20045;-38
2023/11/22 08:17:46;;;;;;;12.10;4.13;;;;;;;;;;5013160;28;20072;-38
2023/11/22 08:20:16;;;;;;;13.00;3.80;;;;;;;;;;5013299;28;20072;-38
2023/11/22 08:22:45;;;;;;;10.30;3.55;;;;;;;;;;5013300;28;20050;-38
2023/11/22 08:25:12;;;;;;;7.00;3.15;;;;;;;;;;5012991;28;20099;-38
2023/11/22 08:27:43;;;;;;;9.30;3.60;;;;;;;;;;5013203;28;20018;-38
2023/11/22 08:30:15;;;;;;;9.20;3.25;;;;;;;;;;5013047;28;20097;-38
2023/11/22 08:32:48;;;;;;;15.35;3.40;;;;;;;;;;5013028;28;20033;-39
2023/11/22 08:35:15;;;;;;;10.13;3.25;;;;;;;;;;5012860;28;20274;-38
2023/11/22 08:37:42;;;;;;;13.55;3.63;;;;;;;;;;5013058;28;20045;-38
2023/11/22 08:40:20;;;;;;;11.10;3.55;;;;;;;;;;5013008;28;20018;-38
2023/11/22 08:42:47;;;;;;;9.25;3.13;;;;;;;;;;5013016;28;20439;-38
2023/11/22 08:45:14;;;;;;;11.73;3.55;;;;;;;;;;5012771;28;20076;-38
2023/11/22 08:47:41;;;;;;;7.35;3.45;;;;;;;;;;5012677;28;20426;-37
2023/11/22 08:50:12;;;;;;;8.52;2.97;;;;;;;;;;5012773;28;20022;-38
2023/11/22 08:52:42;;;;;;;10.25;3.00;;;;;;;;;;5012773;28;20024;-38
2023/11/22 08:55:09;;;;;;;10.05;3.13;;;;;;;;;;5012640;28;20480;-37
2023/11/22 08:57:40;;;;;;;8.18;2.70;;;;;;;;;;5012660;28;20033;-38
2023/11/22 09:00:09;;;;;;;7.35;2.42;;;;;;;;;;5011914;28;20064;-38
2023/11/22 09:02:39;;;;;;;9.73;2.85;;;;;;;;;;5012580;28;20516;-38
2023/11/22 09:05:07;;;;;;;9.05;2.90;;;;;;;;;;5012360;28;20034;-38
2023/11/22 09:07:38;;;;;;;9.65;2.78;;;;;;;;;;5012314;28;20069;-38
2023/11/22 09:10:15;;;;;;;10.63;3.30;;;;;;;;;;5012330;28;20519;-38
2023/11/22 09:12:43;;;;;;;9.98;3.00;;;;;;;;;;5012376;28;20022;-37
2023/11/22 09:15:16;;;;;;;8.32;3.00;;;;;;;;;;5012431;28;20030;-37
2023/11/22 09:17:46;;;;;;;;;;;;;;;;;;5012591;28;20056;-38
2023/11/22 09:20:16;;;;;;;14.75;2.70;;;;;;;;;;5019615;28;19905;-41
2023/11/22 09:22:50;;;;;;;6.95;2.50;;;;;;;;;;5018619;28;20034;-40
2023/11/22 09:25:19;;;;;;;8.20;2.65;;;;;;;;;;5012053;28;20061;-41
2023/11/22 09:27:47;;;;;;;11.82;2.75;;;;;;;;;;5012030;28;20109;-38
2023/11/22 09:30:34;;;;;;;11.38;2.60;;;;;;;;;;5012139;28;20021;-38
2023/11/22 09:33:02;;;;;;;15.32;3.08;;;;;;;;;;5015806;28;20387;-37
2023/11/22 09:35:29;;;;;;;15.43;3.00;;;;;;;;;;5031684;28;20025;-38
2023/11/22 09:38:02;;;;;;;12.82;2.58;;;;;;;;;;5031643;28;20486;-38
2023/11/22 09:40:31;;;;;;;8.05;2.88;;;;;;;;;;5031673;28;20483;-40
2023/11/22 09:43:02;;;;;;;15.52;3.22;;;;;;;;;;5031457;28;20057;-41
2023/11/22 09:45:30;;;;;;;9.68;3.03;;;;;;;;;;5031441;28;20082;-43
2023/11/22 09:47:57;;;;;;;15.73;3.33;;;;;;;;;;5022385;28;20388;-39
2023/11/22 09:50:42;;;;;;;15.63;3.42;;;;;;;;;;5014692;28;20034;-40
2023/11/22 09:53:23;;;;;;;13.15;2.53;;;;;;;;;;5020447;28;20048;-42
2023/11/22 09:55:50;;;;;;;13.45;2.70;;;;;;;;;;5031444;28;20136;-43
2023/11/22 09:58:17;;;;;;;12.75;3.00;;;;;;;;;;5031529;28;20017;-40
2023/11/22 10:00:44;;;;;;;13.70;2.75;;;;;;;;;;5031510;28;20030;-39
2023/11/22 10:03:13;;;;;;;16.58;3.40;;;;;;;;;;5031407;28;20030;-40
2023/11/22 10:05:42;;;;;;;16.85;3.00;;;;;;;;;;5024682;28;20029;-42
2023/11/22 10:08:12;;;;;;;16.90;3.50;;;;;;;;;;5014404;28;20109;-42
2023/11/22 10:10:40;;;;;;;16.75;3.45;;;;;;;;;;5019287;28;20034;-39
2023/11/22 10:13:07;;;;;;;14.75;2.72;;;;;;;;;;5025349;28;20483;-40
2023/11/22 10:15:34;;;;;;;24.80;3.88;;;;;;;;;;5024382;28;20125;-42
2023/11/22 10:18:01;;;;;;;15.20;3.08;;;;;;;;;;5024317;28;20017;-39
2023/11/22 10:20:39;;;;;;;15.02;2.90;;;;;;;;;;5025804;28;20029;-40
2023/11/22 10:23:09;;;;;;;24.50;3.00;;;;;;;;;;5012646;28;20065;-40
2023/11/22 10:25:51;;;;;;;15.30;3.22;;;;;;;;;;5014621;28;20022;-40
2023/11/22 10:28:18;;;;;;;18.08;3.38;;;;;;;;;;5014884;28;20034;-37
2023/11/22 10:30:49;;;;;;;17.13;3.35;;;;;;;;;;5013395;28;20088;-38
2023/11/22 10:33:17;;;;;;;12.20;2.90;;;;;;;;;;5015190;28;20109;-42
2023/11/22 10:35:51;;;;;;;17.88;3.30;;;;;;;;;;5014956;28;20037;-41
2023/11/22 10:38:18;;;;;;;17.58;2.90;;;;;;;;;;5014833;28;20057;-40
2023/11/22 10:40:46;;;;;;;21.67;3.67;;;;;;;;;;5013691;28;20137;-37
2023/11/22 10:43:13;;;;;;;13.15;2.90;;;;;;;;;;5014322;28;20037;-39
2023/11/22 10:45:44;;;;;;;14.52;2.88;;;;;;;;;;4997011;28;20030;-40
2023/11/22 10:48:12;;;;;;;10.70;3.08;;;;;;;;;;5014457;28;20030;-39
2023/11/22 10:50:39;;;;;;;12.02;2.65;;;;;;;;;;5016572;28;20030;-41
2023/11/22 10:53:09;;;;;;;17.88;3.40;;;;;;;;;;5021607;28;20030;-40
2023/11/22 10:55:37;;;;;;;20.02;3.53;;;;;;;;;;5025728;28;20040;-41
2023/11/22 10:58:06;;;;;;;19.05;2.83;;;;;;;;;;5001775;28;20121;-41
2023/11/22 11:00:33;;;;;;;15.80;2.78;;;;;;;;;;5024656;28;20507;-41
2023/11/22 11:03:02;;;;;;;45.20;3.80;;;;;;;;;;5026523;28;20495;-42
2023/11/22 11:05:31;;;;;;;42.83;5.30;;;;;;;;;;5034422;28;20033;-36
2023/11/22 11:08:12;;;;;;;26.67;3.75;;;;;;;;;;5033980;28;20033;-36
2023/11/22 11:10:44;;;;;;;15.77;3.27;;;;;;;;;;5034002;28;20110;-39
2023/11/22 11:13:14;;;;;;;19.20;3.72;;;;;;;;;;5032493;28;20253;-38
2023/11/22 11:15:45;;;;;;;17.15;3.55;;;;;;;;;;5033960;28;20029;-37
2023/11/22 11:18:15;;;;;;;14.00;3.05;;;;;;;;;;5034139;28;20063;-36
2023/11/22 11:20:52;;;;;;;19.38;3.83;;;;;;;;;;5033783;28;20029;-36
2023/11/22 11:23:24;;;;;;;25.60;3.35;;;;;;;;;;5032470;28;20044;-41
2023/11/22 11:25:53;;;;;;;24.42;4.22;;;;;;;;;;5034022;28;20104;-39
2023/11/22 11:28:21;;;;;;;26.08;4.07;;;;;;;;;;5033796;28;20037;-38
2023/11/22 11:30:53;;;;;;;25.50;3.80;;;;;;;;;;5033455;28;20032;-35
2023/11/22 11:33:33;;;;;;;20.42;3.70;;;;;;;;;;5033545;28;20124;-37
2023/11/22 11:36:06;;;;;;;35.63;4.20;;;;;;;;;;5018956;28;20030;-36
2023/11/22 11:38:35;;;;;;;30.33;4.18;;;;;;;;;;5013514;28;20048;-36
2023/11/22 11:41:15;;;;;;;74.60;7.35;;;;;;;;;;5021057;28;20479;-38
2023/11/22 11:43:45;;;;;;;46.85;5.05;;;;;;;;;;5032926;28;20041;-35
2023/11/22 11:46:12;;;;;;;56.50;5.38;;;;;;;;;;5031311;28;20036;-38
2023/11/22 11:48:43;;;;;;;55.92;5.68;;;;;;;;;;5027020;28;20546;-38
2023/11/22 11:51:11;;;;;;;51.25;5.65;;;;;;;;;;5029468;28;20033;-38
2023/11/22 11:53:39;;;;;;;59.65;6.57;;;;;;;;;;5032254;28;20033;-38
2023/11/22 11:56:06;;;;;;;45.65;4.88;;;;;;;;;;5029244;28;20045;-37
2023/11/22 11:58:33;;;;;;;43.38;4.53;;;;;;;;;;5032306;28;20029;-37
2023/11/22 12:01:02;;;;;;;32.05;4.07;;;;;;;;;;5033151;28;20041;-39
2023/11/22 12:03:29;;;;;;;41.97;4.78;;;;;;;;;;5032478;28;20030;-36
2023/11/22 12:05:56;;;;;;;73.78;6.90;;;;;;;;;;5031509;28;20025;-40
2023/11/22 12:08:23;;;;;;;43.03;4.78;;;;;;;;;;5032754;28;20376;-40
2023/11/22 12:10:50;;;;;;;28.38;3.30;;;;;;;;;;5032581;28;20465;-40
2023/11/22 12:13:18;;;;;;;50.55;4.82;;;;;;;;;;5022256;28;20056;-40
2023/11/22 12:15:45;;;;;;;32.90;3.72;;;;;;;;;;5016364;28;20049;-39
2023/11/22 12:18:12;;;;;;;45.58;4.78;;;;;;;;;;5010412;28;20034;-39
2023/11/22 12:20:40;;;;;;;38.92;4.25;;;;;;;;;;5011202;28;20159;-39
2023/11/22 12:23:07;;;;;;;52.25;4.88;;;;;;;;;;5011895;28;20026;-42
2023/11/22 12:25:34;;;;;;;78.13;7.28;;;;;;;;;;5012846;28;20152;-38
2023/11/22 12:28:01;;;;;;;53.03;4.75;;;;;;;;;;5010542;28;20113;-40
2023/11/22 12:30:35;;;;;;;38.00;4.15;;;;;;;;;;5010765;28;20388;-42
2023/11/22 12:33:09;;;;;;;42.75;4.20;;;;;;;;;;5012722;28;20026;-40
2023/11/22 12:35:36;;;;;;;20.98;2.88;;;;;;;;;;5017194;28;20030;-42
2023/11/22 12:38:09;;;;;;;21.27;2.58;;;;;;;;;;5025124;28;20040;-38
2023/11/22 12:40:36;;;;;;;28.10;3.20;;;;;;;;;;5032198;28;20041;-40
2023/11/22 12:43:08;;;;;;;17.77;3.20;;;;;;;;;;5031631;28;20048;-37
2023/11/22 12:45:38;;;;;;;20.25;2.72;;;;;;;;;;5031830;28;20034;-39
2023/11/22 12:48:23;;;;;;;19.25;2.67;;;;;;;;;;5026399;28;20030;-38
2023/11/22 12:50:50;;;;;;;24.35;2.88;;;;;;;;;;5011958;28;20033;-39
2023/11/22 12:53:18;;;;;;;19.48;2.63;;;;;;;;;;5011238;28;20450;-39
2023/11/22 12:55:52;;;;;;;20.27;2.65;;;;;;;;;;5012494;28;20050;-40
2023/11/22 12:58:20;;;;;;;16.00;2.25;;;;;;;;;;5012432;28;20026;-42
2023/11/22 13:00:48;;;;;;;16.77;2.47;;;;;;;;;;4972012;28;20540;-41
2023/11/22 13:03:15;;;;;;;14.82;2.40;;;;;;;;;;4973380;28;20023;-40
2023/11/22 13:05:43;;;;;;;30.65;3.17;;;;;;;;;;4973507;28;20027;-39
2023/11/22 13:08:13;;;;;;;18.75;2.38;;;;;;;;;;4973388;28;20033;-34
2023/11/22 13:11:01;;;;;;;24.77;2.83;;;;;;;;;;4971682;28;20094;-35
2023/11/22 13:13:30;;;;;;;13.50;1.85;;;;;;;;;;4973147;28;20105;-34
2023/11/22 13:15:57;;;;;;;11.80;2.00;;;;;;;;;;4973286;28;20031;-35
2023/11/22 13:18:26;;;;;;;13.38;2.10;;;;;;;;;;4973213;28;20042;-33
2023/11/22 13:20:53;;;;;;;17.75;2.40;;;;;;;;;;4971650;28;20057;-34
2023/11/22 13:23:20;;;;;;;17.40;2.35;;;;;;;;;;4972917;28;20041;-34
2023/11/22 13:25:48;;;;;;;16.30;2.38;;;;;;;;;;4973157;28;20086;-34
2023/11/22 13:28:15;;;;;;;12.98;1.83;;;;;;;;;;4983354;28;20124;-35
2023/11/22 13:30:42;;;;;;;11.27;2.30;;;;;;;;;;4992190;28;20030;-34
2023/11/22 13:33:09;;;;;;;9.63;1.42;;;;;;;;;;4991178;28;20035;-35
2023/11/22 13:35:38;;;;;;;14.02;1.45;;;;;;;;;;4991801;28;20030;-34
2023/11/22 13:38:10;;;;;;;7.45;1.13;;;;;;;;;;4992193;28;20042;-35
2023/11/22 13:40:39;;;;;;;11.40;1.50;;;;;;;;;;4991481;28;20060;-33
2023/11/22 13:43:06;;;;;;;14.32;2.20;;;;;;;;;;4990011;28;20531;-36
2023/11/22 13:45:34;;;;;;;14.73;2.33;;;;;;;;;;4992196;28;20030;-34
2023/11/22 13:48:04;;;;;;;17.52;1.90;;;;;;;;;;4992140;28;20069;-36
2023/11/22 13:50:31;;;;;;;16.15;2.70;;;;;;;;;;4992166;28;20455;-34
2023/11/22 13:52:59;;;;;;;13.13;2.30;;;;;;;;;;4990748;28;20026;-34
2023/11/22 13:55:26;;;;;;;16.08;2.10;;;;;;;;;;4991576;28;20046;-35
2023/11/22 13:57:54;;;;;;;19.83;2.55;;;;;;;;;;4991935;28;20057;-34
2023/11/22 14:00:28;;;;;;;16.80;2.17;;;;;;;;;;5024727;28;20049;-33
2023/11/22 14:02:56;;;;;;;22.40;2.72;;;;;;;;;;5027147;28;20510;-33
2023/11/22 14:05:26;;;;;;;18.33;2.30;;;;;;;;;;5003856;28;20454;-32
2023/11/22 14:07:54;;;;;;;15.02;2.20;;;;;;;;;;5030970;28;20091;-32
2023/11/22 14:10:22;;;;;;;13.02;1.98;;;;;;;;;;5030341;28;20068;-33
2023/11/22 14:12:49;;;;;;;15.70;2.03;;;;;;;;;;5020012;28;20037;-33
2023/11/22 14:15:17;;;;;;;16.95;2.35;;;;;;;;;;5019349;28;20026;-33
2023/11/22 14:17:44;;;;;;;13.25;1.83;;;;;;;;;;5021177;28;20026;-32
2023/11/22 14:20:12;;;;;;;8.32;1.83;;;;;;;;;;5029929;28;20056;-32
2023/11/22 14:22:39;;;;;;;11.05;2.00;;;;;;;;;;5021244;28;20475;-33
2023/11/22 14:25:13;;;;;;;10.20;1.65;;;;;;;;;;5025161;28;20518;-33
2023/11/22 14:27:44;;;;;;;15.18;2.28;;;;;;;;;;5031070;28;20391;-33
2023/11/22 14:30:13;;;;;;;13.95;2.20;;;;;;;;;;5031167;28;20033;-34